sensor_id;sensor_type;location;lat;lon;timestamp;P1;durP1;ratioP1;P2;durP2;ratioP2
4268;SDS011;2148;48.554;7.834;2023-08-20T00:02:21;8.80;;;7.90;;
4268;SDS011;2148;48.554;7.834;2023-08-20T00:04:48;8.75;;;8.05;;
4268;SDS011;2148;48.554;7.834;2023-08-20T00:07:14;9.57;;;8.60;;
4268;SDS011;2148;48.554;7.834;2023-08-20T00:09:40;9.13;;;8.23;;
4268;SDS011;2148;48.554;7.834;2023-08-20T00:12:06;9.35;;;8.45;;
4268;SDS011;2148;48.554;7.834;2023-08-20T00:17:20;9.65;;;8.77;;
4268;SDS011;2148;48.554;7.834;2023-08-20T00:19:46;9.50;;;8.60;;
4268;SDS011;2148;48.554;7.834;2023-08-20T00:22:11;9.93;;;8.43;;
4268;SDS011;2148;48.554;7.834;2023-08-20T00:24:37;9.30;;;8.57;;
4268;SDS011;2148;48.554;7.834;2023-08-20T00:27:02;9.05;;;8.20;;
4268;SDS011;2148;48.554;7.834;2023-08-20T00:29:28;9.68;;;8.88;;
4268;SDS011;2148;48.554;7.834;2023-08-20T00:31:53;9.63;;;8.68;;
4268;SDS011;2148;48.554;7.834;2023-08-20T00:34:18;9.10;;;8.43;;
4268;SDS011;2148;48.554;7.834;2023-08-20T00:36:43;9.52;;;8.73;;
4268;SDS011;2148;48.554;7.834;2023-08-20T00:39:09;9.25;;;8.43;;
4268;SDS011;2148;48.554;7.834;2023-08-20T00:41:34;9.38;;;8.60;;
4268;SDS011;2148;48.554;7.834;2023-08-20T00:43:59;9.38;;;8.57;;
4268;SDS011;2148;48.554;7.834;2023-08-20T00:46:24;9.15;;;8.35;;
4268;SDS011;2148;48.554;7.834;2023-08-20T00:48:49;9.93;;;8.90;;
4268;SDS011;2148;48.554;7.834;2023-08-20T00:51:15;10.10;;;9.30;;
4268;SDS011;2148;48.554;7.834;2023-08-20T00:53:40;10.10;;;9.30;;
4268;SDS011;2148;48.554;7.834;2023-08-20T00:56:05;10.85;;;9.93;;
4268;SDS011;2148;48.554;7.834;2023-08-20T00:58:31;10.15;;;9.25;;
4268;SDS011;2148;48.554;7.834;2023-08-20T01:00:56;9.68;;;8.98;;
4268;SDS011;2148;48.554;7.834;2023-08-20T01:03:22;9.73;;;8.95;;
4268;SDS011;2148;48.554;7.834;2023-08-20T01:05:50;9.52;;;8.80;;
4268;SDS011;2148;48.554;7.834;2023-08-20T01:11:10;9.48;;;8.77;;
4268;SDS011;2148;48.554;7.834;2023-08-20T01:13:40;10.23;;;9.25;;
4268;SDS011;2148;48.554;7.834;2023-08-20T01:16:05;9.15;;;8.48;;
4268;SDS011;2148;48.554;7.834;2023-08-20T01:18:31;10.55;;;9.65;;
4268;SDS011;2148;48.554;7.834;2023-08-20T01:20:58;9.40;;;8.63;;
4268;SDS011;2148;48.554;7.834;2023-08-20T01:26:31;10.07;;;9.25;;
4268;SDS011;2148;48.554;7.834;2023-08-20T01:29:14;8.98;;;8.35;;
4268;SDS011;2148;48.554;7.834;2023-08-20T01:31:40;10.48;;;9.35;;
4268;SDS011;2148;48.554;7.834;2023-08-20T01:34:05;9.43;;;8.73;;
4268;SDS011;2148;48.554;7.834;2023-08-20T01:36:31;9.77;;;9.00;;
4268;SDS011;2148;48.554;7.834;2023-08-20T01:38:56;10.60;;;9.80;;
4268;SDS011;2148;48.554;7.834;2023-08-20T01:41:21;9.68;;;8.98;;
4268;SDS011;2148;48.554;7.834;2023-08-20T01:43:46;9.82;;;8.95;;
4268;SDS011;2148;48.554;7.834;2023-08-20T01:46:12;10.13;;;9.13;;
4268;SDS011;2148;48.554;7.834;2023-08-20T01:48:37;12.05;;;9.10;;
4268;SDS011;2148;48.554;7.834;2023-08-20T01:51:03;10.00;;;9.20;;
4268;SDS011;2148;48.554;7.834;2023-08-20T01:53:28;9.98;;;9.25;;
4268;SDS011;2148;48.554;7.834;2023-08-20T01:55:53;10.00;;;9.18;;
4268;SDS011;2148;48.554;7.834;2023-08-20T01:58:18;10.07;;;9.10;;
4268;SDS011;2148;48.554;7.834;2023-08-20T02:00:44;9.98;;;9.15;;
4268;SDS011;2148;48.554;7.834;2023-08-20T02:03:10;9.52;;;8.77;;
4268;SDS011;2148;48.554;7.834;2023-08-20T02:05:35;10.15;;;9.20;;
4268;SDS011;2148;48.554;7.834;2023-08-20T02:08:00;9.85;;;9.10;;
4268;SDS011;2148;48.554;7.834;2023-08-20T02:10:26;9.95;;;9.25;;
4268;SDS011;2148;48.554;7.834;2023-08-20T02:12:51;10.82;;;9.93;;
4268;SDS011;2148;48.554;7.834;2023-08-20T02:15:16;10.77;;;9.93;;
4268;SDS011;2148;48.554;7.834;2023-08-20T02:17:41;9.85;;;9.13;;
4268;SDS011;2148;48.554;7.834;2023-08-20T02:20:07;11.20;;;10.18;;
4268;SDS011;2148;48.554;7.834;2023-08-20T02:22:35;11.17;;;10.27;;
4268;SDS011;2148;48.554;7.834;2023-08-20T02:25:01;10.60;;;9.68;;
4268;SDS011;2148;48.554;7.834;2023-08-20T02:27:26;11.50;;;10.60;;
4268;SDS011;2148;48.554;7.834;2023-08-20T02:29:52;11.00;;;10.15;;
4268;SDS011;2148;48.554;7.834;2023-08-20T02:32:17;10.75;;;9.75;;
4268;SDS011;2148;48.554;7.834;2023-08-20T02:34:43;11.40;;;10.60;;
4268;SDS011;2148;48.554;7.834;2023-08-20T02:37:08;11.60;;;10.70;;
4268;SDS011;2148;48.554;7.834;2023-08-20T02:39:33;11.45;;;10.55;;
4268;SDS011;2148;48.554;7.834;2023-08-20T02:41:59;11.38;;;10.55;;
4268;SDS011;2148;48.554;7.834;2023-08-20T02:44:24;10.85;;;9.90;;
4268;SDS011;2148;48.554;7.834;2023-08-20T02:46:49;11.10;;;10.20;;
4268;SDS011;2148;48.554;7.834;2023-08-20T02:49:14;11.10;;;10.13;;
4268;SDS011;2148;48.554;7.834;2023-08-20T02:51:40;11.73;;;10.73;;
4268;SDS011;2148;48.554;7.834;2023-08-20T02:54:06;10.88;;;9.98;;
4268;SDS011;2148;48.554;7.834;2023-08-20T02:56:32;11.68;;;10.85;;
4268;SDS011;2148;48.554;7.834;2023-08-20T02:58:57;11.55;;;10.70;;
4268;SDS011;2148;48.554;7.834;2023-08-20T03:01:23;12.65;;;11.38;;
4268;SDS011;2148;48.554;7.834;2023-08-20T03:03:48;11.10;;;10.20;;
4268;SDS011;2148;48.554;7.834;2023-08-20T03:06:14;11.50;;;10.33;;
4268;SDS011;2148;48.554;7.834;2023-08-20T03:08:39;12.33;;;11.30;;
4268;SDS011;2148;48.554;7.834;2023-08-20T03:11:04;11.55;;;10.63;;
4268;SDS011;2148;48.554;7.834;2023-08-20T03:13:29;12.18;;;11.02;;
4268;SDS011;2148;48.554;7.834;2023-08-20T03:15:55;12.00;;;10.95;;
4268;SDS011;2148;48.554;7.834;2023-08-20T03:18:20;11.20;;;10.40;;
4268;SDS011;2148;48.554;7.834;2023-08-20T03:20:45;11.07;;;10.17;;
4268;SDS011;2148;48.554;7.834;2023-08-20T03:23:10;12.15;;;11.05;;
4268;SDS011;2148;48.554;7.834;2023-08-20T03:25:36;12.07;;;11.07;;
4268;SDS011;2148;48.554;7.834;2023-08-20T03:28:01;11.80;;;10.90;;
4268;SDS011;2148;48.554;7.834;2023-08-20T03:30:26;11.67;;;10.77;;
4268;SDS011;2148;48.554;7.834;2023-08-20T03:32:52;11.70;;;10.77;;
4268;SDS011;2148;48.554;7.834;2023-08-20T03:35:17;12.50;;;11.23;;
4268;SDS011;2148;48.554;7.834;2023-08-20T03:37:43;12.27;;;11.33;;
4268;SDS011;2148;48.554;7.834;2023-08-20T03:40:08;11.77;;;10.80;;
4268;SDS011;2148;48.554;7.834;2023-08-20T03:42:33;11.93;;;11.13;;
4268;SDS011;2148;48.554;7.834;2023-08-20T03:44:59;12.50;;;11.53;;
4268;SDS011;2148;48.554;7.834;2023-08-20T03:47:24;12.93;;;11.77;;
4268;SDS011;2148;48.554;7.834;2023-08-20T03:49:50;12.33;;;11.33;;
4268;SDS011;2148;48.554;7.834;2023-08-20T03:52:15;12.37;;;11.43;;
4268;SDS011;2148;48.554;7.834;2023-08-20T03:54:40;12.43;;;11.33;;
4268;SDS011;2148;48.554;7.834;2023-08-20T03:57:06;11.77;;;10.87;;
4268;SDS011;2148;48.554;7.834;2023-08-20T03:59:31;12.95;;;11.82;;
4268;SDS011;2148;48.554;7.834;2023-08-20T04:01:56;12.80;;;11.63;;
4268;SDS011;2148;48.554;7.834;2023-08-20T04:04:22;13.57;;;12.47;;
4268;SDS011;2148;48.554;7.834;2023-08-20T04:06:47;14.23;;;13.10;;
4268;SDS011;2148;48.554;7.834;2023-08-20T04:09:12;13.97;;;13.10;;
4268;SDS011;2148;48.554;7.834;2023-08-20T04:11:37;13.80;;;12.80;;
4268;SDS011;2148;48.554;7.834;2023-08-20T04:14:03;14.97;;;13.97;;
4268;SDS011;2148;48.554;7.834;2023-08-20T04:16:29;14.93;;;13.85;;
4268;SDS011;2148;48.554;7.834;2023-08-20T04:18:55;14.73;;;13.70;;
4268;SDS011;2148;48.554;7.834;2023-08-20T04:21:20;14.87;;;13.80;;
4268;SDS011;2148;48.554;7.834;2023-08-20T04:23:45;15.37;;;14.20;;
4268;SDS011;2148;48.554;7.834;2023-08-20T04:26:10;15.83;;;14.63;;
4268;SDS011;2148;48.554;7.834;2023-08-20T04:28:36;15.47;;;14.47;;
4268;SDS011;2148;48.554;7.834;2023-08-20T04:31:01;17.07;;;15.80;;
4268;SDS011;2148;48.554;7.834;2023-08-20T04:33:26;16.17;;;15.17;;
4268;SDS011;2148;48.554;7.834;2023-08-20T04:35:52;16.00;;;15.00;;
4268;SDS011;2148;48.554;7.834;2023-08-20T04:38:17;16.13;;;15.00;;
4268;SDS011;2148;48.554;7.834;2023-08-20T04:40:44;15.73;;;14.73;;
4268;SDS011;2148;48.554;7.834;2023-08-20T04:43:11;15.47;;;14.37;;
4268;SDS011;2148;48.554;7.834;2023-08-20T04:45:36;16.07;;;14.77;;
4268;SDS011;2148;48.554;7.834;2023-08-20T04:48:01;13.90;;;12.98;;
4268;SDS011;2148;48.554;7.834;2023-08-20T04:50:26;14.37;;;13.27;;
4268;SDS011;2148;48.554;7.834;2023-08-20T04:52:52;14.37;;;13.00;;
4268;SDS011;2148;48.554;7.834;2023-08-20T04:55:17;13.97;;;12.87;;
4268;SDS011;2148;48.554;7.834;2023-08-20T04:57:42;13.73;;;12.73;;
4268;SDS011;2148;48.554;7.834;2023-08-20T05:00:08;12.77;;;11.88;;
4268;SDS011;2148;48.554;7.834;2023-08-20T05:02:34;12.67;;;11.67;;
4268;SDS011;2148;48.554;7.834;2023-08-20T05:05:00;13.47;;;12.17;;
4268;SDS011;2148;48.554;7.834;2023-08-20T05:07:25;13.57;;;12.38;;
4268;SDS011;2148;48.554;7.834;2023-08-20T05:09:50;13.90;;;12.63;;
4268;SDS011;2148;48.554;7.834;2023-08-20T05:12:15;13.07;;;12.03;;
4268;SDS011;2148;48.554;7.834;2023-08-20T05:14:40;12.27;;;11.27;;
4268;SDS011;2148;48.554;7.834;2023-08-20T05:17:06;12.60;;;11.67;;
4268;SDS011;2148;48.554;7.834;2023-08-20T05:19:31;12.17;;;11.23;;
4268;SDS011;2148;48.554;7.834;2023-08-20T05:21:56;13.07;;;11.97;;
4268;SDS011;2148;48.554;7.834;2023-08-20T05:24:23;11.70;;;10.77;;
4268;SDS011;2148;48.554;7.834;2023-08-20T05:27:03;13.33;;;12.03;;
4268;SDS011;2148;48.554;7.834;2023-08-20T05:29:36;12.03;;;11.20;;
4268;SDS011;2148;48.554;7.834;2023-08-20T05:32:02;12.53;;;11.50;;
4268;SDS011;2148;48.554;7.834;2023-08-20T05:34:27;12.80;;;11.70;;
4268;SDS011;2148;48.554;7.834;2023-08-20T05:36:53;13.47;;;12.20;;
4268;SDS011;2148;48.554;7.834;2023-08-20T05:39:18;12.70;;;11.80;;
4268;SDS011;2148;48.554;7.834;2023-08-20T05:41:43;11.77;;;10.97;;
4268;SDS011;2148;48.554;7.834;2023-08-20T05:44:09;12.93;;;12.03;;
4268;SDS011;2148;48.554;7.834;2023-08-20T05:46:35;12.50;;;11.33;;
4268;SDS011;2148;48.554;7.834;2023-08-20T05:49:00;12.70;;;11.70;;
4268;SDS011;2148;48.554;7.834;2023-08-20T05:51:25;12.07;;;11.17;;
4268;SDS011;2148;48.554;7.834;2023-08-20T05:53:50;12.30;;;11.10;;
4268;SDS011;2148;48.554;7.834;2023-08-20T05:56:16;12.03;;;11.23;;
4268;SDS011;2148;48.554;7.834;2023-08-20T05:58:41;13.40;;;12.23;;
4268;SDS011;2148;48.554;7.834;2023-08-20T06:01:06;12.93;;;11.93;;
4268;SDS011;2148;48.554;7.834;2023-08-20T06:03:31;13.27;;;12.20;;
4268;SDS011;2148;48.554;7.834;2023-08-20T06:05:57;12.73;;;11.73;;
4268;SDS011;2148;48.554;7.834;2023-08-20T06:08:23;12.97;;;11.87;;
4268;SDS011;2148;48.554;7.834;2023-08-20T06:10:48;12.97;;;12.00;;
4268;SDS011;2148;48.554;7.834;2023-08-20T06:13:13;13.50;;;12.60;;
4268;SDS011;2148;48.554;7.834;2023-08-20T06:15:39;13.17;;;12.03;;
4268;SDS011;2148;48.554;7.834;2023-08-20T06:18:04;13.13;;;12.03;;
4268;SDS011;2148;48.554;7.834;2023-08-20T06:20:29;12.03;;;11.13;;
4268;SDS011;2148;48.554;7.834;2023-08-20T06:22:55;12.83;;;11.93;;
4268;SDS011;2148;48.554;7.834;2023-08-20T06:25:20;13.90;;;12.90;;
4268;SDS011;2148;48.554;7.834;2023-08-20T06:27:45;14.03;;;12.63;;
4268;SDS011;2148;48.554;7.834;2023-08-20T06:30:10;12.70;;;11.80;;
4268;SDS011;2148;48.554;7.834;2023-08-20T06:32:36;12.97;;;11.97;;
4268;SDS011;2148;48.554;7.834;2023-08-20T06:35:01;14.37;;;13.07;;
4268;SDS011;2148;48.554;7.834;2023-08-20T06:37:26;13.30;;;12.33;;
4268;SDS011;2148;48.554;7.834;2023-08-20T06:39:52;13.67;;;12.53;;
4268;SDS011;2148;48.554;7.834;2023-08-20T06:42:17;13.77;;;12.57;;
4268;SDS011;2148;48.554;7.834;2023-08-20T06:44:42;14.00;;;12.90;;
4268;SDS011;2148;48.554;7.834;2023-08-20T06:47:07;14.50;;;13.10;;
4268;SDS011;2148;48.554;7.834;2023-08-20T06:49:33;13.93;;;12.73;;
4268;SDS011;2148;48.554;7.834;2023-08-20T06:51:58;15.30;;;13.83;;
4268;SDS011;2148;48.554;7.834;2023-08-20T06:54:23;14.27;;;13.07;;
4268;SDS011;2148;48.554;7.834;2023-08-20T06:56:48;14.00;;;12.80;;
4268;SDS011;2148;48.554;7.834;2023-08-20T06:59:13;13.07;;;12.00;;
4268;SDS011;2148;48.554;7.834;2023-08-20T07:01:39;13.60;;;12.60;;
4268;SDS011;2148;48.554;7.834;2023-08-20T07:04:04;14.57;;;13.47;;
4268;SDS011;2148;48.554;7.834;2023-08-20T07:06:30;13.70;;;12.37;;
4268;SDS011;2148;48.554;7.834;2023-08-20T07:08:55;12.70;;;11.53;;
4268;SDS011;2148;48.554;7.834;2023-08-20T07:11:20;14.80;;;13.40;;
4268;SDS011;2148;48.554;7.834;2023-08-20T07:13:46;13.63;;;12.53;;
4268;SDS011;2148;48.554;7.834;2023-08-20T07:16:11;14.17;;;13.07;;
4268;SDS011;2148;48.554;7.834;2023-08-20T07:18:37;13.70;;;12.70;;
4268;SDS011;2148;48.554;7.834;2023-08-20T07:21:02;13.20;;;12.30;;
4268;SDS011;2148;48.554;7.834;2023-08-20T07:23:27;13.27;;;12.20;;
4268;SDS011;2148;48.554;7.834;2023-08-20T07:26:03;12.67;;;11.70;;
4268;SDS011;2148;48.554;7.834;2023-08-20T07:28:32;13.60;;;12.33;;
4268;SDS011;2148;48.554;7.834;2023-08-20T07:31:16;13.30;;;12.20;;
4268;SDS011;2148;48.554;7.834;2023-08-20T07:33:45;14.37;;;13.00;;
4268;SDS011;2148;48.554;7.834;2023-08-20T07:36:11;13.77;;;12.63;;
4268;SDS011;2148;48.554;7.834;2023-08-20T07:38:36;13.30;;;12.10;;
4268;SDS011;2148;48.554;7.834;2023-08-20T07:41:06;13.37;;;12.07;;
4268;SDS011;2148;48.554;7.834;2023-08-20T07:43:31;12.80;;;11.67;;
4268;SDS011;2148;48.554;7.834;2023-08-20T07:45:57;12.70;;;11.80;;
4268;SDS011;2148;48.554;7.834;2023-08-20T07:48:22;12.30;;;11.40;;
4268;SDS011;2148;48.554;7.834;2023-08-20T07:50:47;13.70;;;11.67;;
4268;SDS011;2148;48.554;7.834;2023-08-20T07:53:12;12.97;;;12.07;;
4268;SDS011;2148;48.554;7.834;2023-08-20T07:55:38;13.23;;;12.20;;
4268;SDS011;2148;48.554;7.834;2023-08-20T07:58:03;12.23;;;11.23;;
4268;SDS011;2148;48.554;7.834;2023-08-20T08:00:28;12.53;;;11.53;;
4268;SDS011;2148;48.554;7.834;2023-08-20T08:02:54;14.67;;;13.57;;
4268;SDS011;2148;48.554;7.834;2023-08-20T08:05:19;13.17;;;11.90;;
4268;SDS011;2148;48.554;7.834;2023-08-20T08:07:44;13.67;;;12.57;;
4268;SDS011;2148;48.554;7.834;2023-08-20T08:10:10;13.57;;;12.60;;
4268;SDS011;2148;48.554;7.834;2023-08-20T08:12:35;12.80;;;11.80;;
4268;SDS011;2148;48.554;7.834;2023-08-20T08:15:00;13.87;;;12.77;;
4268;SDS011;2148;48.554;7.834;2023-08-20T08:17:25;13.53;;;12.43;;
4268;SDS011;2148;48.554;7.834;2023-08-20T08:19:51;13.50;;;12.33;;
4268;SDS011;2148;48.554;7.834;2023-08-20T08:22:18;13.27;;;12.27;;
4268;SDS011;2148;48.554;7.834;2023-08-20T08:24:44;13.83;;;12.73;;
4268;SDS011;2148;48.554;7.834;2023-08-20T08:27:09;13.37;;;12.37;;
4268;SDS011;2148;48.554;7.834;2023-08-20T08:29:35;14.27;;;13.07;;
4268;SDS011;2148;48.554;7.834;2023-08-20T08:32:00;14.63;;;13.50;;
4268;SDS011;2148;48.554;7.834;2023-08-20T08:34:25;14.02;;;12.88;;
4268;SDS011;2148;48.554;7.834;2023-08-20T08:36:52;13.63;;;12.53;;
4268;SDS011;2148;48.554;7.834;2023-08-20T08:39:17;13.67;;;12.57;;
4268;SDS011;2148;48.554;7.834;2023-08-20T08:41:42;14.53;;;13.30;;
4268;SDS011;2148;48.554;7.834;2023-08-20T08:44:08;13.70;;;12.50;;
4268;SDS011;2148;48.554;7.834;2023-08-20T08:46:35;14.43;;;13.40;;
4268;SDS011;2148;48.554;7.834;2023-08-20T08:49:01;14.20;;;12.73;;
4268;SDS011;2148;48.554;7.834;2023-08-20T08:51:26;13.43;;;12.33;;
4268;SDS011;2148;48.554;7.834;2023-08-20T08:53:53;12.67;;;11.70;;
4268;SDS011;2148;48.554;7.834;2023-08-20T08:56:19;12.32;;;11.32;;
4268;SDS011;2148;48.554;7.834;2023-08-20T08:58:44;14.18;;;12.98;;
4268;SDS011;2148;48.554;7.834;2023-08-20T09:01:09;14.07;;;12.87;;
4268;SDS011;2148;48.554;7.834;2023-08-20T09:03:34;14.07;;;13.07;;
4268;SDS011;2148;48.554;7.834;2023-08-20T09:06:00;20.70;;;19.00;;
4268;SDS011;2148;48.554;7.834;2023-08-20T09:08:28;14.27;;;12.97;;
4268;SDS011;2148;48.554;7.834;2023-08-20T09:10:55;13.00;;;12.00;;
4268;SDS011;2148;48.554;7.834;2023-08-20T09:13:25;12.77;;;11.53;;
4268;SDS011;2148;48.554;7.834;2023-08-20T09:15:57;13.52;;;12.50;;
4268;SDS011;2148;48.554;7.834;2023-08-20T09:18:22;13.82;;;12.68;;
4268;SDS011;2148;48.554;7.834;2023-08-20T09:20:48;13.85;;;12.65;;
4268;SDS011;2148;48.554;7.834;2023-08-20T09:23:16;13.32;;;12.23;;
4268;SDS011;2148;48.554;7.834;2023-08-20T09:25:43;13.13;;;12.13;;
4268;SDS011;2148;48.554;7.834;2023-08-20T09:28:08;13.48;;;12.48;;
4268;SDS011;2148;48.554;7.834;2023-08-20T09:30:34;14.02;;;12.93;;
4268;SDS011;2148;48.554;7.834;2023-08-20T09:33:07;14.45;;;13.45;;
4268;SDS011;2148;48.554;7.834;2023-08-20T09:35:34;12.35;;;11.35;;
4268;SDS011;2148;48.554;7.834;2023-08-20T09:38:00;12.68;;;11.77;;
4268;SDS011;2148;48.554;7.834;2023-08-20T09:40:26;12.50;;;11.60;;
4268;SDS011;2148;48.554;7.834;2023-08-20T09:42:52;14.23;;;13.13;;
4268;SDS011;2148;48.554;7.834;2023-08-20T09:45:19;13.77;;;12.77;;
4268;SDS011;2148;48.554;7.834;2023-08-20T09:47:45;13.77;;;12.88;;
4268;SDS011;2148;48.554;7.834;2023-08-20T09:50:13;14.05;;;12.85;;
4268;SDS011;2148;48.554;7.834;2023-08-20T09:52:43;13.00;;;12.05;;
4268;SDS011;2148;48.554;7.834;2023-08-20T09:55:35;14.05;;;12.90;;
4268;SDS011;2148;48.554;7.834;2023-08-20T09:58:03;13.90;;;12.93;;
4268;SDS011;2148;48.554;7.834;2023-08-20T10:00:29;14.35;;;13.18;;
4268;SDS011;2148;48.554;7.834;2023-08-20T10:02:55;14.25;;;12.98;;
4268;SDS011;2148;48.554;7.834;2023-08-20T10:05:21;13.43;;;12.45;;
4268;SDS011;2148;48.554;7.834;2023-08-20T10:07:47;13.18;;;12.27;;
4268;SDS011;2148;48.554;7.834;2023-08-20T10:10:14;13.55;;;12.45;;
4268;SDS011;2148;48.554;7.834;2023-08-20T10:12:39;14.43;;;13.32;;
4268;SDS011;2148;48.554;7.834;2023-08-20T10:15:06;14.18;;;12.98;;
4268;SDS011;2148;48.554;7.834;2023-08-20T10:17:33;14.00;;;13.00;;
4268;SDS011;2148;48.554;7.834;2023-08-20T10:19:58;13.90;;;12.93;;
4268;SDS011;2148;48.554;7.834;2023-08-20T10:22:35;14.45;;;13.18;;
4268;SDS011;2148;48.554;7.834;2023-08-20T10:25:03;13.10;;;12.05;;
4268;SDS011;2148;48.554;7.834;2023-08-20T10:27:31;14.50;;;13.40;;
4268;SDS011;2148;48.554;7.834;2023-08-20T10:29:58;13.13;;;12.13;;
4268;SDS011;2148;48.554;7.834;2023-08-20T10:35:08;15.00;;;13.98;;
4268;SDS011;2148;48.554;7.834;2023-08-20T10:37:33;16.17;;;14.82;;
4268;SDS011;2148;48.554;7.834;2023-08-20T10:39:59;15.52;;;14.43;;
4268;SDS011;2148;48.554;7.834;2023-08-20T10:42:27;14.43;;;13.43;;
4268;SDS011;2148;48.554;7.834;2023-08-20T10:44:56;14.95;;;13.77;;
4268;SDS011;2148;48.554;7.834;2023-08-20T10:47:43;12.98;;;11.88;;
4268;SDS011;2148;48.554;7.834;2023-08-20T10:50:09;13.77;;;12.70;;
4268;SDS011;2148;48.554;7.834;2023-08-20T10:52:42;14.40;;;13.43;;
4268;SDS011;2148;48.554;7.834;2023-08-20T10:55:15;13.35;;;12.30;;
4268;SDS011;2148;48.554;7.834;2023-08-20T10:57:49;12.88;;;11.98;;
4268;SDS011;2148;48.554;7.834;2023-08-20T11:00:20;12.48;;;11.40;;
4268;SDS011;2148;48.554;7.834;2023-08-20T11:02:45;14.65;;;13.45;;
4268;SDS011;2148;48.554;7.834;2023-08-20T11:05:17;13.98;;;12.88;;
4268;SDS011;2148;48.554;7.834;2023-08-20T11:07:44;13.40;;;12.40;;
4268;SDS011;2148;48.554;7.834;2023-08-20T11:10:12;13.80;;;12.75;;
4268;SDS011;2148;48.554;7.834;2023-08-20T11:12:38;15.10;;;14.05;;
4268;SDS011;2148;48.554;7.834;2023-08-20T11:15:04;13.77;;;12.95;;
4268;SDS011;2148;48.554;7.834;2023-08-20T11:17:29;11.40;;;10.32;;
4268;SDS011;2148;48.554;7.834;2023-08-20T11:19:55;13.20;;;12.20;;
4268;SDS011;2148;48.554;7.834;2023-08-20T11:22:20;13.48;;;12.40;;
4268;SDS011;2148;48.554;7.834;2023-08-20T11:24:45;12.82;;;11.98;;
4268;SDS011;2148;48.554;7.834;2023-08-20T11:27:11;12.73;;;11.73;;
4268;SDS011;2148;48.554;7.834;2023-08-20T11:29:37;13.32;;;12.40;;
4268;SDS011;2148;48.554;7.834;2023-08-20T11:32:02;11.30;;;10.40;;
4268;SDS011;2148;48.554;7.834;2023-08-20T11:34:28;10.90;;;9.82;;
4268;SDS011;2148;48.554;7.834;2023-08-20T11:36:54;12.43;;;11.38;;
4268;SDS011;2148;48.554;7.834;2023-08-20T11:39:19;12.02;;;11.13;;
4268;SDS011;2148;48.554;7.834;2023-08-20T11:41:44;12.57;;;11.77;;
4268;SDS011;2148;48.554;7.834;2023-08-20T11:44:10;13.02;;;11.85;;
4268;SDS011;2148;48.554;7.834;2023-08-20T11:46:43;12.18;;;11.15;;
4268;SDS011;2148;48.554;7.834;2023-08-20T11:49:09;10.75;;;9.95;;
4268;SDS011;2148;48.554;7.834;2023-08-20T11:51:38;10.23;;;9.38;;
4268;SDS011;2148;48.554;7.834;2023-08-20T11:54:05;10.18;;;9.05;;
4268;SDS011;2148;48.554;7.834;2023-08-20T11:56:32;12.88;;;11.10;;
4268;SDS011;2148;48.554;7.834;2023-08-20T11:58:59;13.00;;;11.75;;
4268;SDS011;2148;48.554;7.834;2023-08-20T12:01:25;10.63;;;9.77;;
4268;SDS011;2148;48.554;7.834;2023-08-20T12:03:50;10.10;;;9.02;;
4268;SDS011;2148;48.554;7.834;2023-08-20T12:06:19;12.02;;;11.02;;
4268;SDS011;2148;48.554;7.834;2023-08-20T12:08:45;11.10;;;10.10;;
4268;SDS011;2148;48.554;7.834;2023-08-20T12:11:10;12.00;;;10.90;;
4268;SDS011;2148;48.554;7.834;2023-08-20T12:13:36;11.52;;;10.57;;
4268;SDS011;2148;48.554;7.834;2023-08-20T12:16:01;9.95;;;9.23;;
4268;SDS011;2148;48.554;7.834;2023-08-20T12:18:26;10.75;;;9.82;;
4268;SDS011;2148;48.554;7.834;2023-08-20T12:20:51;9.27;;;8.57;;
4268;SDS011;2148;48.554;7.834;2023-08-20T12:23:17;9.23;;;8.43;;
4268;SDS011;2148;48.554;7.834;2023-08-20T12:25:42;9.77;;;8.77;;
4268;SDS011;2148;48.554;7.834;2023-08-20T12:28:07;8.95;;;8.35;;
4268;SDS011;2148;48.554;7.834;2023-08-20T12:30:33;9.70;;;8.80;;
4268;SDS011;2148;48.554;7.834;2023-08-20T12:33:00;9.73;;;8.75;;
4268;SDS011;2148;48.554;7.834;2023-08-20T12:35:25;9.57;;;8.68;;
4268;SDS011;2148;48.554;7.834;2023-08-20T12:37:50;8.60;;;7.90;;
4268;SDS011;2148;48.554;7.834;2023-08-20T12:40:15;9.35;;;8.35;;
4268;SDS011;2148;48.554;7.834;2023-08-20T12:42:41;9.68;;;8.80;;
4268;SDS011;2148;48.554;7.834;2023-08-20T12:45:06;8.55;;;7.70;;
4268;SDS011;2148;48.554;7.834;2023-08-20T12:47:32;10.20;;;8.73;;
4268;SDS011;2148;48.554;7.834;2023-08-20T12:49:58;9.07;;;8.27;;
4268;SDS011;2148;48.554;7.834;2023-08-20T12:52:23;9.82;;;8.85;;
4268;SDS011;2148;48.554;7.834;2023-08-20T12:54:49;9.45;;;8.55;;
4268;SDS011;2148;48.554;7.834;2023-08-20T12:57:14;9.00;;;8.18;;
4268;SDS011;2148;48.554;7.834;2023-08-20T12:59:39;9.52;;;8.68;;
4268;SDS011;2148;48.554;7.834;2023-08-20T13:02:05;9.15;;;8.30;;
4268;SDS011;2148;48.554;7.834;2023-08-20T13:04:30;9.20;;;8.40;;
4268;SDS011;2148;48.554;7.834;2023-08-20T13:06:55;8.93;;;8.13;;
4268;SDS011;2148;48.554;7.834;2023-08-20T13:09:21;9.38;;;8.32;;
4268;SDS011;2148;48.554;7.834;2023-08-20T13:11:46;8.50;;;7.82;;
4268;SDS011;2148;48.554;7.834;2023-08-20T13:14:12;8.38;;;7.57;;
4268;SDS011;2148;48.554;7.834;2023-08-20T13:16:38;8.55;;;7.95;;
4268;SDS011;2148;48.554;7.834;2023-08-20T13:19:04;8.85;;;8.13;;
4268;SDS011;2148;48.554;7.834;2023-08-20T13:21:30;8.82;;;8.10;;
4268;SDS011;2148;48.554;7.834;2023-08-20T13:23:55;8.13;;;7.53;;
4268;SDS011;2148;48.554;7.834;2023-08-20T13:26:20;7.97;;;7.18;;
4268;SDS011;2148;48.554;7.834;2023-08-20T13:28:47;8.75;;;7.85;;
4268;SDS011;2148;48.554;7.834;2023-08-20T13:31:12;7.72;;;7.13;;
4268;SDS011;2148;48.554;7.834;2023-08-20T13:33:39;10.00;;;7.47;;
4268;SDS011;2148;48.554;7.834;2023-08-20T13:36:05;8.68;;;7.88;;
4268;SDS011;2148;48.554;7.834;2023-08-20T13:38:32;8.65;;;7.90;;
4268;SDS011;2148;48.554;7.834;2023-08-20T13:40:57;8.07;;;7.43;;
4268;SDS011;2148;48.554;7.834;2023-08-20T13:43:22;8.48;;;7.70;;
4268;SDS011;2148;48.554;7.834;2023-08-20T13:45:48;8.35;;;7.70;;
4268;SDS011;2148;48.554;7.834;2023-08-20T13:48:13;8.38;;;7.55;;
4268;SDS011;2148;48.554;7.834;2023-08-20T13:50:39;8.63;;;7.72;;
4268;SDS011;2148;48.554;7.834;2023-08-20T13:53:04;8.98;;;8.20;;
4268;SDS011;2148;48.554;7.834;2023-08-20T13:55:29;8.80;;;7.95;;
4268;SDS011;2148;48.554;7.834;2023-08-20T13:57:56;11.07;;;10.23;;
4268;SDS011;2148;48.554;7.834;2023-08-20T14:00:21;8.20;;;7.35;;
4268;SDS011;2148;48.554;7.834;2023-08-20T14:02:46;8.35;;;7.70;;
4268;SDS011;2148;48.554;7.834;2023-08-20T14:05:12;8.30;;;7.65;;
4268;SDS011;2148;48.554;7.834;2023-08-20T14:07:37;7.35;;;6.65;;
4268;SDS011;2148;48.554;7.834;2023-08-20T14:10:03;8.48;;;7.60;;
4268;SDS011;2148;48.554;7.834;2023-08-20T14:12:31;7.93;;;7.18;;
4268;SDS011;2148;48.554;7.834;2023-08-20T14:14:57;8.52;;;7.80;;
4268;SDS011;2148;48.554;7.834;2023-08-20T14:17:22;8.00;;;7.30;;
4268;SDS011;2148;48.554;7.834;2023-08-20T14:19:47;8.38;;;7.57;;
4268;SDS011;2148;48.554;7.834;2023-08-20T14:22:12;7.75;;;7.18;;
4268;SDS011;2148;48.554;7.834;2023-08-20T14:24:38;8.07;;;7.40;;
4268;SDS011;2148;48.554;7.834;2023-08-20T14:27:03;23.02;;;21.90;;
4268;SDS011;2148;48.554;7.834;2023-08-20T14:29:28;8.50;;;7.75;;
4268;SDS011;2148;48.554;7.834;2023-08-20T14:31:53;8.75;;;7.10;;
4268;SDS011;2148;48.554;7.834;2023-08-20T14:34:19;7.75;;;7.05;;
4268;SDS011;2148;48.554;7.834;2023-08-20T14:36:44;7.53;;;7.03;;
4268;SDS011;2148;48.554;7.834;2023-08-20T14:39:09;7.70;;;7.10;;
4268;SDS011;2148;48.554;7.834;2023-08-20T14:41:34;7.82;;;7.10;;
4268;SDS011;2148;48.554;7.834;2023-08-20T14:44:00;7.57;;;6.75;;
4268;SDS011;2148;48.554;7.834;2023-08-20T14:46:25;7.80;;;7.10;;
4268;SDS011;2148;48.554;7.834;2023-08-20T14:48:51;7.60;;;7.00;;
4268;SDS011;2148;48.554;7.834;2023-08-20T14:51:16;7.22;;;6.63;;
4268;SDS011;2148;48.554;7.834;2023-08-20T14:53:41;7.18;;;6.65;;
4268;SDS011;2148;48.554;7.834;2023-08-20T14:56:07;7.75;;;7.07;;
4268;SDS011;2148;48.554;7.834;2023-08-20T14:58:32;8.18;;;7.38;;
4268;SDS011;2148;48.554;7.834;2023-08-20T15:00:58;11.05;;;8.55;;